sensor_id;sensor_type;location;lat;lon;timestamp;temperature;humidity
16995;DHT22;8614;48.522;9.206;2022-07-25T00:01:34;20.50;99.90
16995;DHT22;8614;48.522;9.206;2022-07-25T00:04:00;20.50;99.90
16995;DHT22;8614;48.522;9.206;2022-07-25T00:06:27;20.50;99.90
16995;DHT22;8614;48.522;9.206;2022-07-25T00:08:54;20.50;99.90
16995;DHT22;8614;48.522;9.206;2022-07-25T00:11:21;20.40;99.90
16995;DHT22;8614;48.522;9.206;2022-07-25T00:13:48;20.40;99.90
16995;DHT22;8614;48.522;9.206;2022-07-25T00:16:14;20.30;99.90
16995;DHT22;8614;48.522;9.206;2022-07-25T00:18:42;20.30;99.90
16995;DHT22;8614;48.522;9.206;2022-07-25T00:21:09;20.30;99.90
16995;DHT22;8614;48.522;9.206;2022-07-25T00:23:36;20.20;99.90
16995;DHT22;8614;48.522;9.206;2022-07-25T00:26:03;20.20;99.90
16995;DHT22;8614;48.522;9.206;2022-07-25T00:28:30;20.10;99.90
16995;DHT22;8614;48.522;9.206;2022-07-25T00:30:57;20.10;99.90
16995;DHT22;8614;48.522;9.206;2022-07-25T00:33:24;20.00;99.90
16995;DHT22;8614;48.522;9.206;2022-07-25T00:35:52;20.00;99.90
16995;DHT22;8614;48.522;9.206;2022-07-25T00:38:19;19.90;99.90
16995;DHT22;8614;48.522;9.206;2022-07-25T00:40:46;19.90;99.90
16995;DHT22;8614;48.522;9.206;2022-07-25T00:43:13;19.90;99.90
16995;DHT22;8614;48.522;9.206;2022-07-25T00:45:39;19.90;99.90
16995;DHT22;8614;48.522;9.206;2022-07-25T00:48:06;19.90;99.90
16995;DHT22;8614;48.522;9.206;2022-07-25T00:50:35;19.90;99.90
16995;DHT22;8614;48.522;9.206;2022-07-25T00:53:03;19.90;99.90
16995;DHT22;8614;48.522;9.206;2022-07-25T00:55:30;19.90;99.90
16995;DHT22;8614;48.522;9.206;2022-07-25T00:57:58;19.80;99.90
16995;DHT22;8614;48.522;9.206;2022-07-25T01:00:25;19.80;99.90
16995;DHT22;8614;48.522;9.206;2022-07-25T01:02:52;19.80;99.90
16995;DHT22;8614;48.522;9.206;2022-07-25T01:05:19;19.80;99.90
16995;DHT22;8614;48.522;9.206;2022-07-25T01:07:46;19.70;99.90
16995;DHT22;8614;48.522;9.206;2022-07-25T01:10:14;19.70;99.90
16995;DHT22;8614;48.522;9.206;2022-07-25T01:12:47;19.70;99.90
16995;DHT22;8614;48.522;9.206;2022-07-25T01:15:15;19.70;99.90
16995;DHT22;8614;48.522;9.206;2022-07-25T01:17:42;19.60;99.90
16995;DHT22;8614;48.522;9.206;2022-07-25T01:20:14;19.60;99.90
16995;DHT22;8614;48.522;9.206;2022-07-25T01:22:42;19.60;99.90
16995;DHT22;8614;48.522;9.206;2022-07-25T01:25:09;19.60;99.90
16995;DHT22;8614;48.522;9.206;2022-07-25T01:27:36;19.50;99.90
16995;DHT22;8614;48.522;9.206;2022-07-25T01:30:05;19.50;99.90
16995;DHT22;8614;48.522;9.206;2022-07-25T01:32:32;19.40;99.90
16995;DHT22;8614;48.522;9.206;2022-07-25T01:34:59;19.40;99.90
16995;DHT22;8614;48.522;9.206;2022-07-25T01:37:27;19.30;99.90
16995;DHT22;8614;48.522;9.206;2022-07-25T01:39:53;19.30;99.90
16995;DHT22;8614;48.522;9.206;2022-07-25T01:42:20;19.30;99.90
16995;DHT22;8614;48.522;9.206;2022-07-25T01:44:47;19.20;99.90
16995;DHT22;8614;48.522;9.206;2022-07-25T01:47:14;19.20;99.90
16995;DHT22;8614;48.522;9.206;2022-07-25T01:49:41;19.20;99.90
16995;DHT22;8614;48.522;9.206;2022-07-25T01:52:08;19.20;99.90
16995;DHT22;8614;48.522;9.206;2022-07-25T01:54:36;19.20;99.90
16995;DHT22;8614;48.522;9.206;2022-07-25T01:57:04;19.10;99.90
16995;DHT22;8614;48.522;9.206;2022-07-25T01:59:31;19.10;99.90
16995;DHT22;8614;48.522;9.206;2022-07-25T02:01:58;19.10;99.90
16995;DHT22;8614;48.522;9.206;2022-07-25T02:04:25;19.10;99.90
16995;DHT22;8614;48.522;9.206;2022-07-25T02:06:51;19.10;99.90
16995;DHT22;8614;48.522;9.206;2022-07-25T02:09:18;19.10;99.90
16995;DHT22;8614;48.522;9.206;2022-07-25T02:11:46;19.10;99.90
16995;DHT22;8614;48.522;9.206;2022-07-25T02:14:13;19.00;99.90
16995;DHT22;8614;48.522;9.206;2022-07-25T02:16:40;19.00;99.90
16995;DHT22;8614;48.522;9.206;2022-07-25T02:19:07;18.90;99.90
16995;DHT22;8614;48.522;9.206;2022-07-25T02:21:34;18.90;99.90
16995;DHT22;8614;48.522;9.206;2022-07-25T02:24:01;18.90;99.90
16995;DHT22;8614;48.522;9.206;2022-07-25T02:26:27;18.90;99.90
16995;DHT22;8614;48.522;9.206;2022-07-25T02:28:56;18.90;99.90
16995;DHT22;8614;48.522;9.206;2022-07-25T02:31:22;18.90;99.90
16995;DHT22;8614;48.522;9.206;2022-07-25T02:33:49;18.90;99.90
16995;DHT22;8614;48.522;9.206;2022-07-25T02:36:16;18.90;99.90
16995;DHT22;8614;48.522;9.206;2022-07-25T02:38:43;18.90;99.90
16995;DHT22;8614;48.522;9.206;2022-07-25T02:41:10;18.80;99.90
16995;DHT22;8614;48.522;9.206;2022-07-25T02:43:37;18.80;99.90
16995;DHT22;8614;48.522;9.206;2022-07-25T02:46:05;18.70;99.90
16995;DHT22;8614;48.522;9.206;2022-07-25T02:48:32;18.70;99.90
16995;DHT22;8614;48.522;9.206;2022-07-25T02:50:58;18.70;99.90
16995;DHT22;8614;48.522;9.206;2022-07-25T02:53:25;18.60;99.90
16995;DHT22;8614;48.522;9.206;2022-07-25T02:55:52;18.60;99.90
16995;DHT22;8614;48.522;9.206;2022-07-25T02:58:19;18.50;99.90
16995;DHT22;8614;48.522;9.206;2022-07-25T03:00:46;18.50;99.90
16995;DHT22;8614;48.522;9.206;2022-07-25T03:03:14;18.50;99.90
16995;DHT22;8614;48.522;9.206;2022-07-25T03:05:40;18.40;99.90
16995;DHT22;8614;48.522;9.206;2022-07-25T03:08:07;18.40;99.90
16995;DHT22;8614;48.522;9.206;2022-07-25T03:10:34;18.40;99.90
16995;DHT22;8614;48.522;9.206;2022-07-25T03:13:01;18.40;99.90
16995;DHT22;8614;48.522;9.206;2022-07-25T03:15:28;18.40;99.90
16995;DHT22;8614;48.522;9.206;2022-07-25T03:17:55;18.40;99.90
16995;DHT22;8614;48.522;9.206;2022-07-25T03:20:24;18.40;99.90
16995;DHT22;8614;48.522;9.206;2022-07-25T03:22:50;18.40;99.90
16995;DHT22;8614;48.522;9.206;2022-07-25T03:25:17;18.40;99.90
16995;DHT22;8614;48.522;9.206;2022-07-25T03:27:44;18.40;99.90
16995;DHT22;8614;48.522;9.206;2022-07-25T03:30:11;18.40;99.90
16995;DHT22;8614;48.522;9.206;2022-07-25T03:32:39;18.40;99.90
16995;DHT22;8614;48.522;9.206;2022-07-25T03:35:07;18.40;99.90
16995;DHT22;8614;48.522;9.206;2022-07-25T03:37:35;18.30;99.90
16995;DHT22;8614;48.522;9.206;2022-07-25T03:40:02;18.30;99.90
16995;DHT22;8614;48.522;9.206;2022-07-25T03:42:29;18.30;99.90
16995;DHT22;8614;48.522;9.206;2022-07-25T03:44:56;18.30;99.90
16995;DHT22;8614;48.522;9.206;2022-07-25T03:47:22;18.30;99.90
16995;DHT22;8614;48.522;9.206;2022-07-25T03:49:49;18.30;99.90
16995;DHT22;8614;48.522;9.206;2022-07-25T03:52:16;18.30;99.90
16995;DHT22;8614;48.522;9.206;2022-07-25T03:54:44;18.20;99.90
16995;DHT22;8614;48.522;9.206;2022-07-25T03:57:11;18.20;99.90
16995;DHT22;8614;48.522;9.206;2022-07-25T03:59:38;18.20;99.90
16995;DHT22;8614;48.522;9.206;2022-07-25T04:02:05;18.20;99.90
16995;DHT22;8614;48.522;9.206;2022-07-25T04:04:31;18.20;99.90
16995;DHT22;8614;48.522;9.206;2022-07-25T04:06:58;18.20;99.90
16995;DHT22;8614;48.522;9.206;2022-07-25T04:09:25;18.20;99.90
16995;DHT22;8614;48.522;9.206;2022-07-25T04:11:53;18.20;99.90
16995;DHT22;8614;48.522;9.206;2022-07-25T04:14:20;18.20;99.90
16995;DHT22;8614;48.522;9.206;2022-07-25T04:16:47;18.20;99.90
16995;DHT22;8614;48.522;9.206;2022-07-25T04:19:14;18.20;99.90
16995;DHT22;8614;48.522;9.206;2022-07-25T04:21:41;18.30;99.90
16995;DHT22;8614;48.522;9.206;2022-07-25T04:24:07;18.30;99.90
16995;DHT22;8614;48.522;9.206;2022-07-25T04:26:34;18.30;99.90
16995;DHT22;8614;48.522;9.206;2022-07-25T04:29:02;18.40;99.90
16995;DHT22;8614;48.522;9.206;2022-07-25T04:31:29;18.50;99.90
16995;DHT22;8614;48.522;9.206;2022-07-25T04:33:56;18.50;99.90
16995;DHT22;8614;48.522;9.206;2022-07-25T04:36:23;18.60;99.90
16995;DHT22;8614;48.522;9.206;2022-07-25T04:38:51;18.70;99.90
16995;DHT22;8614;48.522;9.206;2022-07-25T04:41:18;18.80;99.90
16995;DHT22;8614;48.522;9.206;2022-07-25T04:43:44;18.90;99.90
16995;DHT22;8614;48.522;9.206;2022-07-25T04:46:17;19.00;99.90
16995;DHT22;8614;48.522;9.206;2022-07-25T04:48:43;19.00;99.90
16995;DHT22;8614;48.522;9.206;2022-07-25T04:51:10;19.10;99.90
16995;DHT22;8614;48.522;9.206;2022-07-25T04:53:37;19.20;99.90
16995;DHT22;8614;48.522;9.206;2022-07-25T04:56:04;19.30;99.90
16995;DHT22;8614;48.522;9.206;2022-07-25T04:58:31;19.40;99.90
16995;DHT22;8614;48.522;9.206;2022-07-25T05:00:58;19.60;99.90
16995;DHT22;8614;48.522;9.206;2022-07-25T05:03:26;19.80;99.90
16995;DHT22;8614;48.522;9.206;2022-07-25T05:05:53;19.90;99.90
16995;DHT22;8614;48.522;9.206;2022-07-25T05:08:20;20.00;99.90
16995;DHT22;8614;48.522;9.206;2022-07-25T05:10:46;20.10;99.90
16995;DHT22;8614;48.522;9.206;2022-07-25T05:13:13;20.20;99.90
16995;DHT22;8614;48.522;9.206;2022-07-25T05:15:40;20.30;99.90
16995;DHT22;8614;48.522;9.206;2022-07-25T05:18:07;20.40;99.90
16995;DHT22;8614;48.522;9.206;2022-07-25T05:20:35;20.50;99.90
16995;DHT22;8614;48.522;9.206;2022-07-25T05:23:02;20.70;99.90
16995;DHT22;8614;48.522;9.206;2022-07-25T05:25:29;20.80;99.90
16995;DHT22;8614;48.522;9.206;2022-07-25T05:27:56;20.90;99.90
16995;DHT22;8614;48.522;9.206;2022-07-25T05:30:23;21.00;99.90
16995;DHT22;8614;48.522;9.206;2022-07-25T05:32:50;21.10;99.90
16995;DHT22;8614;48.522;9.206;2022-07-25T05:35:17;21.20;99.90
16995;DHT22;8614;48.522;9.206;2022-07-25T05:37:45;21.30;99.90
16995;DHT22;8614;48.522;9.206;2022-07-25T05:40:12;21.40;99.90
16995;DHT22;8614;48.522;9.206;2022-07-25T05:42:38;21.50;99.90
16995;DHT22;8614;48.522;9.206;2022-07-25T05:45:06;21.70;99.90
16995;DHT22;8614;48.522;9.206;2022-07-25T05:47:33;21.90;99.90
16995;DHT22;8614;48.522;9.206;2022-07-25T05:50:00;22.10;99.90
16995;DHT22;8614;48.522;9.206;2022-07-25T05:52:27;22.30;99.90
16995;DHT22;8614;48.522;9.206;2022-07-25T05:54:55;22.70;99.90
16995;DHT22;8614;48.522;9.206;2022-07-25T05:57:21;23.30;99.90
16995;DHT22;8614;48.522;9.206;2022-07-25T05:59:48;23.80;99.90
16995;DHT22;8614;48.522;9.206;2022-07-25T06:02:15;24.10;99.90
16995;DHT22;8614;48.522;9.206;2022-07-25T06:04:42;24.50;99.90
16995;DHT22;8614;48.522;9.206;2022-07-25T06:07:09;24.70;99.90
16995;DHT22;8614;48.522;9.206;2022-07-25T06:09:36;24.70;99.90
16995;DHT22;8614;48.522;9.206;2022-07-25T06:12:05;24.70;99.90
16995;DHT22;8614;48.522;9.206;2022-07-25T06:14:32;24.70;99.90
16995;DHT22;8614;48.522;9.206;2022-07-25T06:16:59;24.70;99.90
16995;DHT22;8614;48.522;9.206;2022-07-25T06:19:26;24.90;99.90
16995;DHT22;8614;48.522;9.206;2022-07-25T06:21:52;25.10;99.90
16995;DHT22;8614;48.522;9.206;2022-07-25T06:24:19;25.10;99.90
16995;DHT22;8614;48.522;9.206;2022-07-25T06:26:46;25.00;99.90
16995;DHT22;8614;48.522;9.206;2022-07-25T06:29:14;24.90;99.90
16995;DHT22;8614;48.522;9.206;2022-07-25T06:31:41;25.00;99.90
16995;DHT22;8614;48.522;9.206;2022-07-25T06:34:08;25.30;99.90
16995;DHT22;8614;48.522;9.206;2022-07-25T06:36:34;25.70;99.90
16995;DHT22;8614;48.522;9.206;2022-07-25T06:39:01;26.30;99.90
16995;DHT22;8614;48.522;9.206;2022-07-25T06:41:28;26.80;99.90
16995;DHT22;8614;48.522;9.206;2022-07-25T06:43:55;27.30;99.90
16995;DHT22;8614;48.522;9.206;2022-07-25T06:46:23;27.70;99.90
16995;DHT22;8614;48.522;9.206;2022-07-25T06:48:54;28.10;99.90
16995;DHT22;8614;48.522;9.206;2022-07-25T06:51:21;28.20;99.90
16995;DHT22;8614;48.522;9.206;2022-07-25T06:53:48;28.60;99.90
16995;DHT22;8614;48.522;9.206;2022-07-25T06:56:15;28.80;99.90
16995;DHT22;8614;48.522;9.206;2022-07-25T06:58:42;29.10;99.90
16995;DHT22;8614;48.522;9.206;2022-07-25T07:01:08;29.40;99.90
16995;DHT22;8614;48.522;9.206;2022-07-25T07:03:37;29.60;99.90
16995;DHT22;8614;48.522;9.206;2022-07-25T07:06:05;29.80;99.90
16995;DHT22;8614;48.522;9.206;2022-07-25T07:08:32;30.00;99.90
16995;DHT22;8614;48.522;9.206;2022-07-25T07:10:59;30.20;99.90
16995;DHT22;8614;48.522;9.206;2022-07-25T07:13:26;30.50;99.90
16995;DHT22;8614;48.522;9.206;2022-07-25T07:15:53;30.70;99.90
16995;DHT22;8614;48.522;9.206;2022-07-25T07:18:20;30.90;99.90
16995;DHT22;8614;48.522;9.206;2022-07-25T07:20:49;31.20;99.90
16995;DHT22;8614;48.522;9.206;2022-07-25T07:23:16;31.30;99.90
16995;DHT22;8614;48.522;9.206;2022-07-25T07:25:44;31.50;99.90
16995;DHT22;8614;48.522;9.206;2022-07-25T07:28:11;31.60;99.90
16995;DHT22;8614;48.522;9.206;2022-07-25T07:30:38;31.90;99.90
16995;DHT22;8614;48.522;9.206;2022-07-25T07:33:05;32.00;99.90
16995;DHT22;8614;48.522;9.206;2022-07-25T07:35:31;32.00;99.90
16995;DHT22;8614;48.522;9.206;2022-07-25T07:38:00;32.20;99.90
16995;DHT22;8614;48.522;9.206;2022-07-25T07:40:26;32.40;99.90
16995;DHT22;8614;48.522;9.206;2022-07-25T07:42:53;32.60;99.90
16995;DHT22;8614;48.522;9.206;2022-07-25T07:45:23;32.80;99.90
16995;DHT22;8614;48.522;9.206;2022-07-25T07:47:51;32.70;99.90
16995;DHT22;8614;48.522;9.206;2022-07-25T07:50:20;32.70;99.90
16995;DHT22;8614;48.522;9.206;2022-07-25T07:52:48;33.20;99.90
16995;DHT22;8614;48.522;9.206;2022-07-25T07:55:17;33.50;99.40
16995;DHT22;8614;48.522;9.206;2022-07-25T07:58:02;33.60;99.00
16995;DHT22;8614;48.522;9.206;2022-07-25T08:00:30;33.80;98.40
16995;DHT22;8614;48.522;9.206;2022-07-25T08:02:58;33.90;98.80
16995;DHT22;8614;48.522;9.206;2022-07-25T08:05:27;34.10;98.10
16995;DHT22;8614;48.522;9.206;2022-07-25T08:07:55;34.30;98.20
16995;DHT22;8614;48.522;9.206;2022-07-25T08:10:25;34.50;97.60
16995;DHT22;8614;48.522;9.206;2022-07-25T08:12:52;34.60;97.50
16995;DHT22;8614;48.522;9.206;2022-07-25T08:15:20;34.70;97.30
16995;DHT22;8614;48.522;9.206;2022-07-25T08:17:49;34.60;96.80
16995;DHT22;8614;48.522;9.206;2022-07-25T08:20:17;34.80;96.70
16995;DHT22;8614;48.522;9.206;2022-07-25T08:22:47;34.80;96.50
16995;DHT22;8614;48.522;9.206;2022-07-25T08:25:17;35.10;97.30
16995;DHT22;8614;48.522;9.206;2022-07-25T08:27:45;35.10;97.00
16995;DHT22;8614;48.522;9.206;2022-07-25T08:30:14;35.40;96.40
16995;DHT22;8614;48.522;9.206;2022-07-25T08:32:48;35.70;95.90
16995;DHT22;8614;48.522;9.206;2022-07-25T08:35:15;36.00;95.30
16995;DHT22;8614;48.522;9.206;2022-07-25T08:37:43;36.10;95.30
16995;DHT22;8614;48.522;9.206;2022-07-25T08:40:11;36.20;95.30
16995;DHT22;8614;48.522;9.206;2022-07-25T08:42:38;36.30;94.60
16995;DHT22;8614;48.522;9.206;2022-07-25T08:45:08;36.40;94.10
16995;DHT22;8614;48.522;9.206;2022-07-25T08:47:35;36.30;94.10
16995;DHT22;8614;48.522;9.206;2022-07-25T08:50:03;36.50;93.00
16995;DHT22;8614;48.522;9.206;2022-07-25T08:52:31;36.50;93.20
16995;DHT22;8614;48.522;9.206;2022-07-25T08:55:00;36.60;93.20
16995;DHT22;8614;48.522;9.206;2022-07-25T08:57:27;36.80;93.60
16995;DHT22;8614;48.522;9.206;2022-07-25T08:59:56;37.00;92.40
16995;DHT22;8614;48.522;9.206;2022-07-25T09:02:24;37.10;91.90
16995;DHT22;8614;48.522;9.206;2022-07-25T09:04:52;37.00;91.90
16995;DHT22;8614;48.522;9.206;2022-07-25T09:07:29;37.20;91.80
16995;DHT22;8614;48.522;9.206;2022-07-25T09:09:56;37.40;92.00
16995;DHT22;8614;48.522;9.206;2022-07-25T09:12:24;37.50;90.30
16995;DHT22;8614;48.522;9.206;2022-07-25T09:14:51;37.30;91.00
16995;DHT22;8614;48.522;9.206;2022-07-25T09:17:18;37.40;91.00
16995;DHT22;8614;48.522;9.206;2022-07-25T09:19:52;37.50;90.80
16995;DHT22;8614;48.522;9.206;2022-07-25T09:22:18;37.50;89.10
16995;DHT22;8614;48.522;9.206;2022-07-25T09:24:46;37.50;90.00
16995;DHT22;8614;48.522;9.206;2022-07-25T09:27:13;37.50;87.30
16995;DHT22;8614;48.522;9.206;2022-07-25T09:29:40;37.30;87.10
16995;DHT22;8614;48.522;9.206;2022-07-25T09:32:16;37.40;87.00
16995;DHT22;8614;48.522;9.206;2022-07-25T09:34:45;37.50;85.50
16995;DHT22;8614;48.522;9.206;2022-07-25T09:37:14;37.60;84.50
16995;DHT22;8614;48.522;9.206;2022-07-25T09:39:42;37.80;83.10
16995;DHT22;8614;48.522;9.206;2022-07-25T09:42:21;37.80;83.90
16995;DHT22;8614;48.522;9.206;2022-07-25T09:45:03;37.90;83.10
16995;DHT22;8614;48.522;9.206;2022-07-25T09:47:31;37.70;82.10
16995;DHT22;8614;48.522;9.206;2022-07-25T09:49:58;37.80;83.70
16995;DHT22;8614;48.522;9.206;2022-07-25T09:52:26;37.80;80.70
16995;DHT22;8614;48.522;9.206;2022-07-25T09:54:53;37.70;82.00
16995;DHT22;8614;48.522;9.206;2022-07-25T09:57:20;37.60;80.70
16995;DHT22;8614;48.522;9.206;2022-07-25T09:59:48;37.60;81.40
16995;DHT22;8614;48.522;9.206;2022-07-25T10:02:24;37.50;82.70
16995;DHT22;8614;48.522;9.206;2022-07-25T10:05:08;37.70;81.30
16995;DHT22;8614;48.522;9.206;2022-07-25T10:07:42;37.70;80.40
16995;DHT22;8614;48.522;9.206;2022-07-25T10:10:20;37.80;80.80
16995;DHT22;8614;48.522;9.206;2022-07-25T10:13:01;38.00;80.50
16995;DHT22;8614;48.522;9.206;2022-07-25T10:15:46;38.10;79.10
16995;DHT22;8614;48.522;9.206;2022-07-25T10:18:15;38.10;76.50
16995;DHT22;8614;48.522;9.206;2022-07-25T10:20:43;38.00;75.50
16995;DHT22;8614;48.522;9.206;2022-07-25T10:23:23;38.00;77.60
16995;DHT22;8614;48.522;9.206;2022-07-25T10:26:07;37.90;77.40
16995;DHT22;8614;48.522;9.206;2022-07-25T10:28:40;38.00;77.50
16995;DHT22;8614;48.522;9.206;2022-07-25T10:31:19;38.00;76.20
16995;DHT22;8614;48.522;9.206;2022-07-25T10:33:49;37.80;75.30
16995;DHT22;8614;48.522;9.206;2022-07-25T10:36:18;37.80;73.90
16995;DHT22;8614;48.522;9.206;2022-07-25T10:38:50;37.70;74.70
16995;DHT22;8614;48.522;9.206;2022-07-25T10:41:17;37.60;74.30
16995;DHT22;8614;48.522;9.206;2022-07-25T10:43:45;37.50;74.70
16995;DHT22;8614;48.522;9.206;2022-07-25T10:46:16;37.40;72.50
16995;DHT22;8614;48.522;9.206;2022-07-25T10:48:43;37.40;74.30
16995;DHT22;8614;48.522;9.206;2022-07-25T10:51:12;37.40;75.00
16995;DHT22;8614;48.522;9.206;2022-07-25T10:53:43;37.30;73.90
16995;DHT22;8614;48.522;9.206;2022-07-25T10:56:15;37.20;74.60
16995;DHT22;8614;48.522;9.206;2022-07-25T10:58:48;37.20;74.70
16995;DHT22;8614;48.522;9.206;2022-07-25T11:01:19;37.20;73.40
16995;DHT22;8614;48.522;9.206;2022-07-25T11:03:47;37.10;72.70
16995;DHT22;8614;48.522;9.206;2022-07-25T11:06:15;37.10;71.90
16995;DHT22;8614;48.522;9.206;2022-07-25T11:08:43;36.80;71.20
16995;DHT22;8614;48.522;9.206;2022-07-25T11:11:11;36.70;72.00
16995;DHT22;8614;48.522;9.206;2022-07-25T11:13:40;36.60;71.50
16995;DHT22;8614;48.522;9.206;2022-07-25T11:16:09;36.60;71.60
16995;DHT22;8614;48.522;9.206;2022-07-25T11:18:37;36.60;72.80
16995;DHT22;8614;48.522;9.206;2022-07-25T11:21:07;36.60;72.90
16995;DHT22;8614;48.522;9.206;2022-07-25T11:23:34;36.50;72.50
16995;DHT22;8614;48.522;9.206;2022-07-25T11:26:06;36.50;73.50
16995;DHT22;8614;48.522;9.206;2022-07-25T11:28:39;36.50;72.80
16995;DHT22;8614;48.522;9.206;2022-07-25T11:31:06;36.40;70.90
16995;DHT22;8614;48.522;9.206;2022-07-25T11:33:33;36.30;73.00
16995;DHT22;8614;48.522;9.206;2022-07-25T11:36:01;36.30;71.30
16995;DHT22;8614;48.522;9.206;2022-07-25T11:38:28;36.30;71.80
16995;DHT22;8614;48.522;9.206;2022-07-25T11:40:55;36.30;70.70
16995;DHT22;8614;48.522;9.206;2022-07-25T11:43:23;36.20;69.80
16995;DHT22;8614;48.522;9.206;2022-07-25T11:46:00;36.20;70.80
16995;DHT22;8614;48.522;9.206;2022-07-25T11:48:32;36.20;71.00
16995;DHT22;8614;48.522;9.206;2022-07-25T11:51:11;36.20;71.80
16995;DHT22;8614;48.522;9.206;2022-07-25T11:53:44;36.30;71.80
16995;DHT22;8614;48.522;9.206;2022-07-25T11:56:16;36.20;70.60
16995;DHT22;8614;48.522;9.206;2022-07-25T11:58:43;36.10;71.30
16995;DHT22;8614;48.522;9.206;2022-07-25T12:01:16;36.00;70.70
16995;DHT22;8614;48.522;9.206;2022-07-25T12:03:43;36.00;71.20
16995;DHT22;8614;48.522;9.206;2022-07-25T12:06:11;36.00;72.30
16995;DHT22;8614;48.522;9.206;2022-07-25T12:08:39;36.00;72.60
16995;DHT22;8614;48.522;9.206;2022-07-25T12:11:20;36.00;70.40
16995;DHT22;8614;48.522;9.206;2022-07-25T12:13:47;36.00;70.50
16995;DHT22;8614;48.522;9.206;2022-07-25T12:16:16;36.00;70.70
16995;DHT22;8614;48.522;9.206;2022-07-25T12:18:44;35.90;71.00
16995;DHT22;8614;48.522;9.206;2022-07-25T12:21:10;36.00;70.20
16995;DHT22;8614;48.522;9.206;2022-07-25T12:23:37;35.90;71.50
16995;DHT22;8614;48.522;9.206;2022-07-25T12:26:07;35.80;70.40
16995;DHT22;8614;48.522;9.206;2022-07-25T12:28:35;35.90;71.00
16995;DHT22;8614;48.522;9.206;2022-07-25T12:31:02;36.00;70.70
16995;DHT22;8614;48.522;9.206;2022-07-25T12:33:30;36.10;70.40
16995;DHT22;8614;48.522;9.206;2022-07-25T12:35:58;36.00;69.10
16995;DHT22;8614;48.522;9.206;2022-07-25T12:38:25;36.10;69.40
16995;DHT22;8614;48.522;9.206;2022-07-25T12:40:52;36.00;69.00
16995;DHT22;8614;48.522;9.206;2022-07-25T12:43:19;35.90;68.20
16995;DHT22;8614;48.522;9.206;2022-07-25T12:45:46;36.00;68.10
16995;DHT22;8614;48.522;9.206;2022-07-25T12:48:14;36.10;67.50
16995;DHT22;8614;48.522;9.206;2022-07-25T12:50:42;36.10;67.30
16995;DHT22;8614;48.522;9.206;2022-07-25T12:53:09;35.80;68.40
16995;DHT22;8614;48.522;9.206;2022-07-25T12:55:38;35.70;68.40
16995;DHT22;8614;48.522;9.206;2022-07-25T12:58:05;35.80;67.30
16995;DHT22;8614;48.522;9.206;2022-07-25T13:00:32;36.00;68.40
16995;DHT22;8614;48.522;9.206;2022-07-25T13:02:59;36.10;68.50
16995;DHT22;8614;48.522;9.206;2022-07-25T13:05:26;36.30;67.20
16995;DHT22;8614;48.522;9.206;2022-07-25T13:07:55;36.40;66.60
16995;DHT22;8614;48.522;9.206;2022-07-25T13:10:22;36.50;65.90
16995;DHT22;8614;48.522;9.206;2022-07-25T13:12:49;36.50;66.10
16995;DHT22;8614;48.522;9.206;2022-07-25T13:15:16;36.50;66.40
16995;DHT22;8614;48.522;9.206;2022-07-25T13:17:45;36.40;65.60
16995;DHT22;8614;48.522;9.206;2022-07-25T13:20:12;36.30;67.20
16995;DHT22;8614;48.522;9.206;2022-07-25T13:22:40;36.20;67.60
16995;DHT22;8614;48.522;9.206;2022-07-25T13:25:08;36.00;67.30
16995;DHT22;8614;48.522;9.206;2022-07-25T13:27:36;35.80;66.10
16995;DHT22;8614;48.522;9.206;2022-07-25T13:30:04;35.70;67.80
16995;DHT22;8614;48.522;9.206;2022-07-25T13:32:31;35.60;69.10
16995;DHT22;8614;48.522;9.206;2022-07-25T13:34:57;35.70;69.80
16995;DHT22;8614;48.522;9.206;2022-07-25T13:37:24;35.90;69.70
16995;DHT22;8614;48.522;9.206;2022-07-25T13:39:51;35.80;68.60
16995;DHT22;8614;48.522;9.206;2022-07-25T13:42:19;35.80;68.70
16995;DHT22;8614;48.522;9.206;2022-07-25T13:44:46;35.60;69.40
16995;DHT22;8614;48.522;9.206;2022-07-25T13:47:17;35.60;71.40
16995;DHT22;8614;48.522;9.206;2022-07-25T13:49:44;35.60;68.90
16995;DHT22;8614;48.522;9.206;2022-07-25T13:52:10;35.50;70.00
16995;DHT22;8614;48.522;9.206;2022-07-25T13:54:37;35.60;70.40
16995;DHT22;8614;48.522;9.206;2022-07-25T13:57:04;35.40;71.00
16995;DHT22;8614;48.522;9.206;2022-07-25T13:59:32;35.10;71.50
16995;DHT22;8614;48.522;9.206;2022-07-25T14:01:59;35.10;71.60
16995;DHT22;8614;48.522;9.206;2022-07-25T14:04:26;35.10;72.80
16995;DHT22;8614;48.522;9.206;2022-07-25T14:06:52;35.20;71.90
16995;DHT22;8614;48.522;9.206;2022-07-25T14:09:20;35.20;73.10
16995;DHT22;8614;48.522;9.206;2022-07-25T14:11:47;35.20;73.90
16995;DHT22;8614;48.522;9.206;2022-07-25T14:14:14;35.10;74.40
16995;DHT22;8614;48.522;9.206;2022-07-25T14:16:42;35.00;75.00
16995;DHT22;8614;48.522;9.206;2022-07-25T14:19:09;34.90;74.50
16995;DHT22;8614;48.522;9.206;2022-07-25T14:21:36;34.90;75.50
16995;DHT22;8614;48.522;9.206;2022-07-25T14:24:03;34.80;75.30
16995;DHT22;8614;48.522;9.206;2022-07-25T14:26:31;34.90;75.50
16995;DHT22;8614;48.522;9.206;2022-07-25T14:28:58;35.20;76.10
16995;DHT22;8614;48.522;9.206;2022-07-25T14:31:25;35.30;75.30
16995;DHT22;8614;48.522;9.206;2022-07-25T14:33:53;35.50;73.90
16995;DHT22;8614;48.522;9.206;2022-07-25T14:36:20;35.30;73.80
16995;DHT22;8614;48.522;9.206;2022-07-25T14:38:47;35.20;74.60
16995;DHT22;8614;48.522;9.206;2022-07-25T14:41:14;35.30;74.60
16995;DHT22;8614;48.522;9.206;2022-07-25T14:43:41;35.40;74.50
16995;DHT22;8614;48.522;9.206;2022-07-25T14:46:08;35.50;74.40
16995;DHT22;8614;48.522;9.206;2022-07-25T14:48:35;35.40;74.50
16995;DHT22;8614;48.522;9.206;2022-07-25T14:51:05;35.50;73.50
16995;DHT22;8614;48.522;9.206;2022-07-25T14:53:32;35.40;73.20
16995;DHT22;8614;48.522;9.206;2022-07-25T14:56:01;35.50;76.40
16995;DHT22;8614;48.522;9.206;2022-07-25T14:58:28;35.50;75.50
16995;DHT22;8614;48.522;9.206;2022-07-25T15:00:55;35.70;75.70
16995;DHT22;8614;48.522;9.206;2022-07-25T15:03:21;35.80;74.30
16995;DHT22;8614;48.522;9.206;2022-07-25T15:05:48;35.80;74.60
16995;DHT22;8614;48.522;9.206;2022-07-25T15:08:16;35.80;74.80
16995;DHT22;8614;48.522;9.206;2022-07-25T15:10:43;35.70;73.90
16995;DHT22;8614;48.522;9.206;2022-07-25T15:13:10;35.70;74.70
16995;DHT22;8614;48.522;9.206;2022-07-25T15:15:37;35.70;73.80
16995;DHT22;8614;48.522;9.206;2022-07-25T15:18:04;35.60;75.60
16995;DHT22;8614;48.522;9.206;2022-07-25T15:20:31;35.60;75.50
16995;DHT22;8614;48.522;9.206;2022-07-25T15:22:57;35.40;75.00
16995;DHT22;8614;48.522;9.206;2022-07-25T15:25:25;35.30;75.90
16995;DHT22;8614;48.522;9.206;2022-07-25T15:27:52;35.30;76.90
16995;DHT22;8614;48.522;9.206;2022-07-25T15:30:19;35.10;76.40
16995;DHT22;8614;48.522;9.206;2022-07-25T15:32:46;35.00;76.90
16995;DHT22;8614;48.522;9.206;2022-07-25T15:35:13;34.90;77.60
16995;DHT22;8614;48.522;9.206;2022-07-25T15:37:40;34.70;75.70
16995;DHT22;8614;48.522;9.206;2022-07-25T15:40:08;34.60;78.60
16995;DHT22;8614;48.522;9.206;2022-07-25T15:42:38;34.50;77.40
16995;DHT22;8614;48.522;9.206;2022-07-25T15:45:06;34.50;78.60
16995;DHT22;8614;48.522;9.206;2022-07-25T15:47:33;34.50;78.50
16995;DHT22;8614;48.522;9.206;2022-07-25T15:49:59;34.40;78.70